ADDS METAR Data INFO
IDs: Format: Raw Decoded Include TAF

Data at: 0930 UTC 25 Jun 2018

KFOA 250915Z AUTO 00000KT 7SM BKN006 OVC070 22/21 A2998 RMK AO2 LTG DSNT S T02180211
KFOA 250855Z AUTO 06003KT 7SM SCT008 SCT070 22/21 A2997 RMK AO2 T02160210
KFOA 250835Z AUTO 09003KT 7SM SCT008 BKN070 22/21 A2997 RMK AO2 LTG DSNT S T02160210
KFOA 250815Z AUTO 12003KT 7SM SCT060 BKN070 22/21 A2997 RMK AO2 LTG DSNT SW T02160208
KFOA 250755Z AUTO 00000KT 10SM BKN060 OVC070 22/21 A2996 RMK AO2 LTG DSNT S T02210211
KFOA 250735Z AUTO 09003KT 10SM OVC060 22/21 A2997 RMK AO2 T02210210
KFOA 250715Z AUTO 07004KT 10SM OVC060 22/21 A2997 RMK AO2 T02210210
KFOA 250655Z AUTO 00000KT 10SM OVC060 22/21 A2997 RMK AO2 T02210211
KFOA 250635Z AUTO 13003KT 10SM BKN060 OVC070 22/21 A2997 RMK AO2 LTG DSNT S T02210210
KFOA 250615Z AUTO 11003KT 10SM OVC060 22/21 A2997 RMK AO2 T02220210
KFOA 250555Z AUTO 00000KT 10SM OVC060 22/21 A2997 RMK AO2 60050 T02210210 10266 20216 402950177
KFOA 250535Z AUTO 00000KT 10SM BKN060 OVC110 22/21 A2997 RMK AO2 T02200209
KFOA 250515Z AUTO 00000KT 10SM SCT060 OVC110 22/21 A2997 RMK AO2 T02160207
KFOA 250455Z AUTO 00000KT 10SM BKN060 BKN110 22/21 A2997 RMK AO2 T02170207
KFOA 250435Z AUTO 00000KT 10SM OVC060 22/21 A2996 RMK AO2 T02210210
KFOA 250415Z AUTO 00000KT 10SM BKN070 BKN080 22/21 A2997 RMK AO2 T02210210
KFOA 250355Z AUTO 13003KT 10SM BKN060 OVC080 22/21 A2998 RMK AO2 LTG DSNT S T02210214
KFOA 250335Z AUTO 15003KT 10SM OVC060 22/22 A2999 RMK AO2 T02230215
KFOA 250315Z AUTO 00000KT 10SM OVC070 22/21 A2999 RMK AO2 T02220213
KFOA 250255Z AUTO 11003KT 10SM BKN070 BKN090 OVC120 22/21 A2999 RMK AO2 P0002 60050 T02210213
KFOA 250235Z AUTO 10006KT 10SM -DZ SCT080 OVC090 22/21 A2999 RMK AO2 LTG DSNT E P0001 T02200212
KFOA 250215Z AUTO 12005KT 7SM -RA BKN080 OVC090 22/21 A2999 RMK AO2 P0001 T02170210
KFOA 250155Z AUTO 20004KT 5SM RA SCT023 BKN035 OVC075 22/21 A2999 RMK AO2 LTG DSNT SE P0047 T02170207
KFOA 250135Z AUTO 20014KT 2 1/2SM +RA SCT020 BKN031 OVC065 22/21 A2999 RMK AO2 P0027 T02210205
KFOA 250115Z AUTO 17012G17KT 7SM -RA SCT016 BKN070 OVC090 25/23 A2998 RMK AO2 LTG DSNT SE P0002 T02460228
KFOA 250055Z AUTO 00000KT 7SM -VCTSRA SCT070 OVC090 26/23 A2996 RMK AO2 P0001 T02550230
KFOA 250035Z AUTO 00000KT 10SM VCTS BKN090 OVC110 27/22 A2995 RMK AO2 LTG DSNT W T02650222
KFOA 250015Z AUTO 09003KT 10SM OVC090 27/23 A2994 RMK AO2 T02650225
KFOA 242355Z AUTO 12003KT 10SM BKN100 BKN120 27/23 A2994 RMK AO2 T02660228 10295 20266
KFOA 242335Z AUTO 09003KT 10SM BKN100 BKN120 27/23 A2994 RMK AO2 T02730228
KFOA 242315Z AUTO 12003KT 10SM -DZ SCT120 27/22 A2994 RMK AO2 T02670222
KFOA 242255Z AUTO 13003KT 10SM -RA CLR 27/22 A2994 RMK AO2 T02680224
KFOA 242235Z AUTO 12005KT 10SM -RA CLR 28/22 A2994 RMK AO2 T02750220
KFOA 242215Z AUTO 12007KT 10SM SCT070 28/22 A2994 RMK AO2 T02780217
KFOA 242155Z AUTO 09005KT 10SM SCT080 SCT085 29/21 A2994 RMK AO2 T02850206
KFOA 242135Z AUTO 11004KT 10SM CLR 29/21 A2995 RMK AO2 T02860211
KFOA 242115Z AUTO 06005KT 10SM CLR 29/20 A2994 RMK AO2 T02900199
KFOA 242055Z AUTO 07004KT 10SM CLR 29/21 A2994 RMK AO2 T02930207
KFOA 242035Z AUTO 08004KT 10SM CLR 29/21 A2995 RMK AO2 T02940206
KFOA 242015Z AUTO 00000KT 10SM CLR 29/20 A2996 RMK AO2 T02850202
KFOA 241955Z AUTO 00000KT 10SM SCT070 29/20 A2997 RMK AO2 T02850202
KFOA 241935Z AUTO 21004KT 10SM SCT070 29/21 A2998 RMK AO2 T02850207
KFOA 241915Z AUTO 21008KT 10SM BKN041 29/21 A2999 RMK AO2 T02850209
KFOA 241855Z AUTO 18006KT 10SM BKN039 29/21 A2999 RMK AO2 T02850205
KFOA 241835Z AUTO 00000KT 10SM SCT039 29/19 A2997 RMK AO2 T02850193
KFOA 241815Z AUTO 00000KT 10SM SCT041 29/19 A2997 RMK AO2 T02850193
KFOA 241755Z AUTO 20003KT 10SM SCT043 29/20 A2997 RMK AO2 LTG DSNT SW T02860197 10288 20202
KFOA 241735Z AUTO 18003KT 10SM SCT037 BKN046 29/20 A2997 RMK AO2 T02850204
KFOA 241715Z AUTO 18005KT 10SM SCT043 OVC048 28/21 A2997 RMK AO2 T02830209
KFOA 241655Z AUTO 21005KT 10SM SCT034 BKN043 OVC049 28/21 A2997 RMK AO2 T02770206
KFOA 241635Z AUTO 16003KT 10SM BKN031 BKN038 OVC047 28/20 A2998 RMK AO2 T02780200
KFOA 241615Z AUTO 15003KT 10SM SCT029 BKN037 28/21 A2998 RMK AO2 T02750206
KFOA 241555Z AUTO 13003KT 10SM CLR 28/21 A2997 RMK AO2 T02760208
KFOA 241535Z AUTO 19003KT 10SM CLR 27/20 A2996 RMK AO2 T02700202
KFOA 241515Z AUTO 13003KT 10SM CLR 26/21 A2997 RMK AO2 T02630208
KFOA 241455Z AUTO 00000KT 10SM CLR 26/21 A2997 RMK AO2 T02640206
KFOA 241435Z AUTO 05003KT 10SM CLR 26/20 A2996 RMK AO2 T02570196
KFOA 241415Z AUTO 04003KT 10SM CLR 25/20 A2996 RMK AO2 T02500200
KFOA 241355Z AUTO 00000KT 10SM CLR 25/20 A2995 RMK AO2 T02450202
KFOA 241335Z AUTO 00000KT 10SM CLR 24/20 A2996 RMK AO2 T02400202
KFOA 241315Z AUTO 00000KT 10SM CLR 24/20 A2994 RMK AO2 T02350202
KFOA 241255Z AUTO 00000KT 10SM CLR 23/20 A2994 RMK AO2 T02290196
KFOA 241235Z AUTO 00000KT 10SM CLR 22/20 A2994 RMK AO2 T02200203
KFOA 241215Z AUTO 00000KT 7SM CLR 21/20 A2994 RMK AO2 T02100203
KFOA 241155Z AUTO 00000KT 4SM BR CLR 20/20 A2992 RMK AO2 T02010196 10206 20177
KFOA 241135Z AUTO 00000KT 4SM BR SCT002 19/19 A2991 RMK AO2 T01920187
KFOA 241115Z AUTO 00000KT 2 1/2SM BR SCT002 18/18 A2990 RMK AO2 VIS 1 1/4V5 T01840179
KFOA 241055Z AUTO 00000KT 1 1/2SM BR VV007 18/18 A2989 RMK AO2 T01800175
KFOA 241035Z AUTO 00000KT 5SM BR CLR 18/18 A2990 RMK AO2 T01840180
KFOA 241015Z AUTO 00000KT 5SM BR CLR 19/18 A2990 RMK AO2 T01860181
KFOA 240955Z AUTO 00000KT 5SM BR CLR 19/18 A2989 RMK AO2 T01870182
KFOA 240935Z AUTO 00000KT 5SM BR CLR 19/19 A2989 RMK AO2 T01910186
KFOA 240915Z AUTO 00000KT 7SM CLR 19/19 A2989 RMK AO2 T01940189
KFOA 240855Z AUTO 00000KT 4SM BR CLR 19/19 A2988 RMK AO2 T01940190
KFOA 240835Z AUTO 00000KT 5SM BR CLR 20/19 A2987 RMK AO2 T01950190
KFOA 240815Z AUTO 00000KT 3SM BR CLR 20/19 A2987 RMK AO2 T01950190
KFOA 240755Z AUTO 00000KT 4SM BR CLR 20/19 A2987 RMK AO2 T01960191
KFOA 240735Z AUTO 00000KT 5SM BR CLR 20/19 A2987 RMK AO2 T01960191
KFOA 240715Z AUTO 00000KT 5SM BR CLR 19/19 A2987 RMK AO2 T01920187
KFOA 240655Z AUTO 16003KT 5SM BR CLR 20/19 A2986 RMK AO2 T01950189
KFOA 240635Z AUTO 00000KT 5SM BR CLR 20/20 A2986 RMK AO2 T02010195
KFOA 240615Z AUTO 00000KT 7SM CLR 20/20 A2986 RMK AO2 T02010195
KFOA 240555Z AUTO 00000KT 10SM CLR 20/20 A2987 RMK AO2 T02010195 10265 20200 402650200
KFOA 240535Z AUTO 00000KT 7SM CLR 21/20 A2986 RMK AO2 T02060198
KFOA 240515Z AUTO 00000KT 10SM CLR 21/20 A2986 RMK AO2 T02100201
KFOA 240455Z AUTO 00000KT 10SM CLR 21/20 A2986 RMK AO2 T02100202
KFOA 240435Z AUTO 00000KT 10SM CLR 21/20 A2986 RMK AO2 T02120202
KFOA 240415Z AUTO 00000KT 10SM CLR 22/20 A2986 RMK AO2 T02160203
KFOA 240355Z AUTO 00000KT 10SM CLR 22/21 A2985 RMK AO2 T02160205
KFOA 240335Z AUTO 00000KT 10SM CLR 22/20 A2984 RMK AO2 T02150204
KFOA 240315Z AUTO 00000KT 10SM CLR 22/20 A2984 RMK AO2 T02160204
KFOA 240255Z AUTO 00000KT 10SM CLR 23/21 A2984 RMK AO2 T02280205
KFOA 240235Z AUTO 00000KT 10SM CLR 23/21 A2983 RMK AO2 T02250205
KFOA 240215Z AUTO 00000KT 10SM CLR 23/21 A2982 RMK AO2 T02290206
KFOA 240155Z AUTO 00000KT 10SM CLR 23/21 A2981 RMK AO2 T02330206
KFOA 240135Z AUTO 00000KT 10SM CLR 24/21 A2981 RMK AO2 T02420210
KFOA 240115Z AUTO 00000KT 10SM CLR 25/20 A2981 RMK AO2 T02480204
KFOA 240055Z AUTO 00000KT 10SM CLR 26/20 A2981 RMK AO2 T02550201
KFOA 240035Z AUTO 00000KT 10SM CLR 26/20 A2981 RMK AO2 T02580203
KFOA 240015Z AUTO 23004KT 10SM SCT037 26/20 A2981 RMK AO2 T02590200
KFOA 232355Z AUTO 24003KT 10SM BKN037 26/20 A2981 RMK AO2 T02610202 10265 20251
KFOA 232335Z AUTO 24003KT 10SM BKN039 BKN065 26/20 A2981 RMK AO2 T02590203
KFOA 232315Z AUTO 23004KT 10SM SCT038 BKN045 BKN065 27/20 A2981 RMK AO2 T02650198
KFOA 232255Z AUTO 00000KT 10SM SCT034 SCT070 BKN120 26/20 A2980 RMK AO2 T02640200
KFOA 232235Z AUTO 22004KT 10SM SCT070 SCT120 26/20 A2980 RMK AO2 T02630198
KFOA 232215Z AUTO 22004KT 10SM SCT060 SCT070 BKN120 26/20 A2980 RMK AO2 T02630201
KFOA 232155Z AUTO 23004KT 10SM SCT060 BKN070 26/20 A2981 RMK AO2 T02600196
KFOA 232135Z AUTO 22006KT 10SM SCT038 SCT046 OVC060 26/20 A2981 RMK AO2 T02590201